Time;durP1;ratioP1;P1;durP2;ratioP2;P2;SDS_P1;SDS_P2;PMS_P1;PMS_P2;Temp;Humidity;BMP_temperature;BMP_pressure;BME280_temperature;BME280_humidity;BME280_pressure;Samples;Min_cycle;Max_cycle;Signal;HPM_P1;HPM_P2
2023/03/14 00:02:12;;;;;;;1.05;0.45;;;9.10;99.90;;;;;;4929506;29;20079;-64
2023/03/14 00:04:39;;;;;;;1.65;0.30;;;9.20;99.90;;;;;;4951856;28;20061;-64
2023/03/14 00:07:12;;;;;;;0.68;0.40;;;9.30;99.90;;;;;;4925605;29;20501;-63
2023/03/14 00:09:43;;;;;;;1.52;0.40;;;9.30;99.90;;;;;;4946891;28;20043;-63
2023/03/14 00:12:15;;;;;;;1.02;0.40;;;9.20;99.90;;;;;;4944417;28;20046;-63
2023/03/14 00:14:47;;;;;;;1.20;0.30;;;9.30;99.90;;;;;;4954397;28;20059;-65
2023/03/14 00:17:19;;;;;;;0.60;0.50;;;9.30;99.90;;;;;;4934429;28;20039;-64
2023/03/14 00:19:53;;;;;;;0.68;0.28;;;9.30;99.90;;;;;;4949444;28;20153;-63
2023/03/14 00:22:26;;;;;;;1.35;0.40;;;9.20;99.90;;;;;;4949231;28;20052;-63
2023/03/14 00:24:58;;;;;;;0.85;0.40;;;9.20;99.90;;;;;;4952387;28;20051;-63
2023/03/14 00:27:30;;;;;;;0.70;0.30;;;9.20;99.90;;;;;;4933410;28;20048;-63
2023/03/14 00:30:03;;;;;;;0.77;0.45;;;9.20;99.90;;;;;;4924420;29;20413;-63
2023/03/14 00:32:35;;;;;;;1.10;0.40;;;9.20;99.90;;;;;;4947145;28;20055;-63
2023/03/14 00:35:08;;;;;;;0.98;0.32;;;9.20;99.90;;;;;;4926172;29;20508;-64
2023/03/14 00:37:40;;;;;;;1.73;0.30;;;9.20;99.90;;;;;;4956018;28;20523;-63
2023/03/14 00:40:12;;;;;;;0.70;0.30;;;9.20;99.90;;;;;;4950305;28;20044;-64
2023/03/14 00:42:44;;;;;;;0.98;0.30;;;9.20;99.90;;;;;;4933303;28;20047;-64
2023/03/14 00:45:16;;;;;;;0.38;0.20;;;9.20;99.90;;;;;;4946854;28;20104;-64
2023/03/14 00:47:48;;;;;;;0.28;0.20;;;9.20;99.90;;;;;;4942334;28;20164;-63
2023/03/14 00:50:20;;;;;;;0.40;0.30;;;9.20;99.90;;;;;;4964979;28;20130;-63
2023/03/14 00:52:52;;;;;;;0.70;0.25;;;9.20;99.90;;;;;;4923354;29;20052;-64
2023/03/14 00:55:24;;;;;;;0.50;0.20;;;9.20;99.90;;;;;;4943297;28;20455;-63
2023/03/14 00:57:56;;;;;;;0.65;0.20;;;9.20;99.90;;;;;;4925967;29;20050;-63
2023/03/14 01:00:28;;;;;;;1.58;0.25;;;9.10;99.90;;;;;;4936936;28;20520;-64
2023/03/14 01:03:00;;;;;;;0.20;0.20;;;9.10;99.90;;;;;;4932156;29;20052;-64
2023/03/14 01:05:32;;;;;;;0.20;0.20;;;9.10;99.90;;;;;;4935484;28;20044;-64
2023/03/14 01:08:06;;;;;;;1.38;0.20;;;9.00;99.90;;;;;;4964075;28;20098;-64
2023/03/14 01:10:37;;;;;;;0.95;0.30;;;8.90;99.90;;;;;;4944157;28;20095;-63
2023/03/14 01:13:09;;;;;;;0.57;0.30;;;8.90;99.90;;;;;;4932754;29;20075;-62
2023/03/14 01:15:41;;;;;;;2.60;0.20;;;8.80;99.90;;;;;;4941206;28;20042;-64
2023/03/14 01:18:13;;;;;;;0.93;0.30;;;8.80;99.90;;;;;;4931261;29;20051;-63
2023/03/14 01:20:45;;;;;;;0.73;0.45;;;8.70;99.90;;;;;;4941990;28;20539;-63
2023/03/14 01:23:11;;;;;;;0.20;0.20;;;8.70;99.90;;;;;;4965937;28;20058;-63
2023/03/14 01:25:41;;;;;;;0.63;0.20;;;8.70;99.90;;;;;;4954712;28;20427;-63
2023/03/14 01:28:14;;;;;;;0.50;0.30;;;8.60;99.90;;;;;;4963183;28;20062;-64
2023/03/14 01:30:46;;;;;;;0.30;0.20;;;8.50;99.90;;;;;;4928470;28;20073;-64
2023/03/14 01:33:18;;;;;;;1.52;0.25;;;8.50;99.90;;;;;;4943983;28;20054;-63
2023/03/14 01:35:50;;;;;;;0.63;0.30;;;8.40;99.90;;;;;;4962489;28;20051;-64
2023/03/14 01:38:22;;;;;;;0.30;0.20;;;8.40;99.90;;;;;;4942167;28;20548;-63
2023/03/14 01:40:54;;;;;;;2.00;0.20;;;8.30;99.90;;;;;;4928739;29;20094;-63
2023/03/14 01:43:26;;;;;;;0.95;0.20;;;8.30;99.90;;;;;;4941655;28;20051;-64
2023/03/14 01:46:04;;;;;;;0.40;0.30;;;8.30;99.90;;;;;;4949260;28;20054;-63
2023/03/14 01:49:01;;;;;;;0.75;0.30;;;8.20;99.90;;;;;;4935353;28;20070;-64
2023/03/14 01:52:07;;;;;;;0.85;0.20;;;8.20;99.90;;;;;;4950006;28;20048;-64
2023/03/14 01:54:42;;;;;;;1.63;0.47;;;8.20;99.90;;;;;;4928947;28;20038;-64
2023/03/14 01:57:19;;;;;;;1.30;0.98;;;8.20;99.90;;;;;;4946517;28;20047;-64
2023/03/14 01:59:59;;;;;;;0.85;0.22;;;8.20;99.90;;;;;;4943889;28;20493;-64
2023/03/14 02:03:03;;;;;;;0.40;0.20;;;8.20;99.90;;;;;;4941644;28;20168;-64
2023/03/14 02:05:34;;;;;;;0.40;0.30;;;8.20;99.90;;;;;;4941923;28;20127;-64
2023/03/14 02:08:19;;;;;;;0.50;0.20;;;8.20;99.90;;;;;;4948702;28;20039;-64
2023/03/14 02:10:58;;;;;;;0.35;0.22;;;8.20;99.90;;;;;;4929591;29;20552;-64
2023/03/14 02:13:50;;;;;;;1.15;0.65;;;8.20;99.90;;;;;;4946270;28;20053;-64
2023/03/14 02:16:38;;;;;;;0.43;0.20;;;8.20;99.90;;;;;;4951380;28;20039;-63
2023/03/14 02:19:35;;;;;;;0.20;0.20;;;8.30;99.90;;;;;;4945098;28;20058;-63
2023/03/14 02:22:20;;;;;;;0.20;0.10;;;8.30;99.90;;;;;;4944238;28;20059;-63
2023/03/14 02:25:21;;;;;;;1.45;0.20;;;8.40;99.90;;;;;;4923178;29;20044;-63
2023/03/14 02:27:53;;;;;;;1.25;0.30;;;8.40;99.90;;;;;;4927265;29;20061;-63
2023/03/14 02:30:28;;;;;;;1.00;0.20;;;8.40;99.90;;;;;;4928215;28;20054;-64
2023/03/14 02:32:59;;;;;;;0.55;0.20;;;8.40;99.90;;;;;;4967676;28;20125;-63
2023/03/14 02:35:41;;;;;;;0.57;0.40;;;8.40;99.90;;;;;;4964239;28;20063;-64
2023/03/14 02:38:41;;;;;;;0.30;0.20;;;8.40;99.90;;;;;;4962442;28;20055;-63
2023/03/14 02:41:13;;;;;;;0.55;0.20;;;8.50;99.90;;;;;;4959454;28;20043;-63
2023/03/14 02:43:55;;;;;;;0.65;0.28;;;8.40;99.90;;;;;;4929133;29;20472;-63
2023/03/14 02:46:27;;;;;;;0.68;0.30;;;8.50;99.90;;;;;;4958472;28;20044;-64
2023/03/14 02:49:06;;;;;;;0.40;0.40;;;8.50;99.90;;;;;;4939189;28;20049;-63
2023/03/14 02:51:40;;;;;;;0.68;0.30;;;8.40;99.90;;;;;;4942416;28;20042;-63
2023/03/14 02:54:12;;;;;;;;;;;8.40;99.90;;;;;;4933012;29;20044;-63
2023/03/14 02:56:44;;;;;;;0.30;0.30;;;8.50;99.90;;;;;;4948251;28;19929;-63
2023/03/14 02:59:16;;;;;;;1.17;0.20;;;8.40;99.90;;;;;;4945400;28;20089;-63
2023/03/14 03:01:52;;;;;;;0.30;0.20;;;8.40;99.90;;;;;;4931030;28;20071;-63
2023/03/14 03:04:25;;;;;;;1.50;0.20;;;8.30;99.90;;;;;;4942011;28;20047;-63
2023/03/14 03:06:57;;;;;;;0.28;0.28;;;8.30;99.90;;;;;;4932476;29;20060;-63
2023/03/14 03:09:29;;;;;;;0.73;0.30;;;8.30;99.90;;;;;;4939476;28;20044;-63
2023/03/14 03:12:00;;;;;;;0.57;0.20;;;8.30;99.90;;;;;;4923548;29;20102;-63
2023/03/14 03:14:32;;;;;;;0.20;0.20;;;8.30;99.90;;;;;;4926438;28;20066;-63
2023/03/14 03:17:05;;;;;;;0.20;0.20;;;8.30;99.90;;;;;;4930868;29;20054;-63
2023/03/14 03:19:38;;;;;;;0.20;0.20;;;8.20;99.90;;;;;;4934483;28;20042;-63
2023/03/14 03:22:10;;;;;;;0.20;0.20;;;8.20;99.90;;;;;;4943558;28;20055;-63
2023/03/14 03:24:42;;;;;;;0.10;0.10;;;8.20;99.90;;;;;;4964650;28;20110;-63
2023/03/14 03:27:14;;;;;;;0.30;0.30;;;8.20;99.90;;;;;;4940576;28;20053;-63
2023/03/14 03:29:46;;;;;;;0.40;0.30;;;8.20;99.90;;;;;;4928308;28;20582;-63
2023/03/14 03:32:17;;;;;;;0.57;0.17;;;8.10;99.90;;;;;;4925062;29;20043;-63
2023/03/14 03:34:50;;;;;;;0.40;0.20;;;8.10;99.90;;;;;;4946596;28;20067;-63
2023/03/14 03:37:21;;;;;;;1.75;0.20;;;8.10;99.90;;;;;;4945293;28;20489;-63
2023/03/14 03:39:54;;;;;;;0.30;0.20;;;8.10;99.90;;;;;;4935403;28;20065;-63
2023/03/14 03:42:27;;;;;;;0.20;0.20;;;8.00;99.90;;;;;;4935302;28;20047;-63
2023/03/14 03:44:53;;;;;;;0.28;0.20;;;8.00;99.90;;;;;;4964945;28;20094;-63
2023/03/14 03:47:21;;;;;;;0.40;0.25;;;8.00;99.90;;;;;;4965593;28;20086;-63
2023/03/14 03:49:55;;;;;;;0.45;0.32;;;8.00;99.90;;;;;;4960159;28;20127;-63
2023/03/14 03:52:27;;;;;;;0.13;0.13;;;7.90;99.90;;;;;;4947737;28;20061;-63
2023/03/14 03:54:53;;;;;;;1.05;0.22;;;7.90;99.90;;;;;;4945729;28;20042;-63
2023/03/14 03:57:27;;;;;;;0.90;0.20;;;8.00;99.90;;;;;;4943642;28;20051;-63
2023/03/14 03:59:59;;;;;;;0.20;0.20;;;7.90;99.90;;;;;;4946097;28;20055;-63
2023/03/14 04:02:40;;;;;;;0.30;0.20;;;7.90;99.90;;;;;;4952060;28;20053;-63
2023/03/14 04:05:15;;;;;;;0.73;0.30;;;7.90;99.90;;;;;;4948929;28;20044;-63
2023/03/14 04:07:58;;;;;;;0.20;0.20;;;7.90;99.90;;;;;;4932504;29;20092;-63
2023/03/14 04:10:34;;;;;;;0.20;0.20;;;7.90;99.90;;;;;;4938161;28;20051;-63
2023/03/14 04:13:19;;;;;;;0.43;0.43;;;7.90;99.90;;;;;;4944732;28;20035;-63
2023/03/14 04:15:54;;;;;;;2.55;0.30;;;7.80;99.90;;;;;;4933426;29;20058;-63
2023/03/14 04:18:30;;;;;;;0.77;0.20;;;7.80;99.90;;;;;;4928074;28;20521;-63
2023/03/14 04:21:02;;;;;;;0.22;0.20;;;7.80;99.90;;;;;;4948979;28;20039;-63
2023/03/14 04:23:44;;;;;;;0.65;0.30;;;7.70;99.90;;;;;;4943289;28;20494;-63
2023/03/14 04:26:11;;;;;;;0.30;0.30;;;7.80;99.90;;;;;;4966965;28;20071;-63
2023/03/14 04:28:43;;;;;;;0.32;0.30;;;7.70;99.90;;;;;;4952804;28;20122;-63
2023/03/14 04:31:21;;;;;;;1.65;0.32;;;7.80;99.90;;;;;;4932374;29;20158;-63
2023/03/14 04:33:52;;;;;;;1.30;0.30;;;7.70;99.90;;;;;;4946885;28;20066;-63
2023/03/14 04:36:32;;;;;;;0.43;0.32;;;7.80;99.90;;;;;;4928916;28;20040;-63
2023/03/14 04:39:07;;;;;;;0.55;0.38;;;7.80;99.90;;;;;;4931744;29;20476;-63
2023/03/14 04:41:46;;;;;;;0.20;0.20;;;7.80;99.90;;;;;;4955215;28;20428;-63
2023/03/14 04:44:13;;;;;;;0.20;0.20;;;7.80;99.90;;;;;;4948003;28;20047;-63
2023/03/14 04:46:45;;;;;;;0.20;0.20;;;7.80;99.90;;;;;;4944418;28;20137;-62
2023/03/14 04:49:17;;;;;;;0.30;0.30;;;7.70;99.90;;;;;;4951811;28;20047;-63
2023/03/14 04:51:45;;;;;;;0.63;0.20;;;7.70;99.90;;;;;;4949758;28;20035;-63
2023/03/14 04:54:17;;;;;;;0.25;0.20;;;7.70;99.90;;;;;;4932159;29;20048;-63
2023/03/14 04:56:48;;;;;;;4.07;0.40;;;7.80;99.90;;;;;;4961096;28;20043;-63
2023/03/14 04:59:19;;;;;;;2.25;0.30;;;7.70;99.90;;;;;;4944252;28;20078;-63
2023/03/14 05:01:55;;;;;;;0.30;0.17;;;7.70;99.90;;;;;;4943778;28;20090;-63
2023/03/14 05:05:06;;;;;;;0.10;0.10;;;7.70;99.90;;;;;;4942790;28;20115;-63
2023/03/14 05:08:00;;;;;;;0.30;0.20;;;7.70;99.90;;;;;;4947214;28;20471;-63
2023/03/14 05:10:57;;;;;;;1.05;0.50;;;7.70;99.90;;;;;;4950282;28;20047;-63
2023/03/14 05:13:44;;;;;;;0.43;0.20;;;7.70;99.90;;;;;;4937324;28;20047;-63
2023/03/14 05:16:35;;;;;;;1.17;0.30;;;7.60;99.90;;;;;;4953644;28;20139;-63
2023/03/14 05:19:37;;;;;;;1.00;0.20;;;7.60;99.90;;;;;;4932589;28;20048;-63
2023/03/14 05:22:15;;;;;;;1.35;0.30;;;7.60;99.90;;;;;;4945139;28;20035;-63
2023/03/14 05:24:42;;;;;;;1.10;0.28;;;7.60;99.90;;;;;;4950746;28;20057;-64
2023/03/14 05:27:29;;;;;;;1.15;0.20;;;7.60;99.90;;;;;;4940195;28;20043;-63
2023/03/14 05:30:11;;;;;;;0.93;0.20;;;7.60;99.90;;;;;;4930184;29;20051;-63
2023/03/14 05:33:09;;;;;;;1.77;0.30;;;7.50;99.90;;;;;;4939533;28;20058;-63
2023/03/14 05:35:50;;;;;;;0.80;0.30;;;7.60;99.90;;;;;;4952829;28;20043;-63
2023/03/14 05:38:41;;;;;;;0.52;0.20;;;7.60;99.90;;;;;;4953891;28;20062;-63
2023/03/14 05:41:37;;;;;;;1.63;0.30;;;7.60;99.90;;;;;;4937499;28;20420;-63
2023/03/14 05:44:18;;;;;;;0.25;0.20;;;7.50;99.90;;;;;;4949167;28;20061;-65
2023/03/14 05:47:03;;;;;;;0.22;0.22;;;7.50;99.90;;;;;;4930885;29;20184;-63
2023/03/14 05:49:35;;;;;;;0.43;0.20;;;7.50;99.90;;;;;;4951222;28;20046;-63
2023/03/14 05:52:17;;;;;;;1.23;0.20;;;7.60;99.90;;;;;;4943437;28;20137;-63
2023/03/14 05:55:03;;;;;;;0.20;0.20;;;7.50;99.90;;;;;;4936675;29;20066;-63
2023/03/14 05:57:54;;;;;;;1.60;0.40;;;7.60;99.90;;;;;;4936903;28;20078;-63
2023/03/14 06:00:45;;;;;;;0.68;0.30;;;7.60;99.90;;;;;;4929462;29;20039;-63
2023/03/14 06:03:29;;;;;;;0.30;0.10;;;7.60;99.90;;;;;;4952099;28;20063;-63
2023/03/14 06:05:57;;;;;;;0.22;0.20;;;7.60;99.90;;;;;;4947310;28;20047;-62
2023/03/14 06:08:24;;;;;;;0.38;0.25;;;7.60;99.90;;;;;;4947014;28;20036;-63
2023/03/14 06:10:57;;;;;;;0.13;0.10;;;7.60;99.90;;;;;;4929657;28;20050;-63
2023/03/14 06:13:30;;;;;;;1.08;0.20;;;7.50;99.90;;;;;;4940215;28;20055;-63
2023/03/14 06:16:02;;;;;;;1.65;0.28;;;7.60;99.90;;;;;;4950506;28;20153;-63
2023/03/14 06:18:34;;;;;;;0.63;0.25;;;7.60;99.90;;;;;;4931506;28;20042;-63
2023/03/14 06:21:08;;;;;;;1.55;0.70;;;7.60;99.90;;;;;;4962783;28;20046;-63
2023/03/14 06:23:40;;;;;;;0.50;0.40;;;7.60;99.90;;;;;;4954230;28;20098;-63
2023/03/14 06:26:12;;;;;;;1.17;0.20;;;7.60;99.90;;;;;;4952022;28;20046;-63
2023/03/14 06:28:44;;;;;;;0.50;0.25;;;7.70;99.90;;;;;;4946942;28;20045;-63
2023/03/14 06:31:16;;;;;;;0.22;0.20;;;7.70;99.90;;;;;;4950551;28;20480;-63
2023/03/14 06:33:54;;;;;;;0.20;0.20;;;7.70;99.90;;;;;;4933490;28;20035;-63
2023/03/14 06:36:29;;;;;;;0.63;0.20;;;7.80;99.90;;;;;;4927607;28;20043;-63
2023/03/14 06:39:02;;;;;;;0.40;0.20;;;7.70;99.90;;;;;;4934720;29;20050;-63
2023/03/14 06:41:39;;;;;;;0.20;0.20;;;7.80;99.90;;;;;;4967022;28;20074;-63
2023/03/14 06:44:12;;;;;;;0.77;0.50;;;7.80;99.90;;;;;;4950481;28;20047;-63
2023/03/14 06:46:44;;;;;;;2.05;0.20;;;7.90;99.90;;;;;;4963764;28;20898;-63
2023/03/14 06:49:16;;;;;;;0.20;0.10;;;7.90;99.90;;;;;;4965570;28;20062;-63
2023/03/14 06:51:51;;;;;;;0.55;0.20;;;7.90;99.90;;;;;;4962050;28;20039;-63
2023/03/14 06:54:19;;;;;;;0.15;0.15;;;7.90;99.90;;;;;;4925585;28;20452;-63
2023/03/14 06:56:51;;;;;;;0.90;0.20;;;8.00;99.90;;;;;;4946868;28;20050;-62
2023/03/14 06:59:23;;;;;;;0.70;0.10;;;8.00;99.90;;;;;;4959744;28;20048;-62
2023/03/14 07:01:56;;;;;;;1.20;0.20;;;8.00;99.90;;;;;;4929683;28;20054;-63
2023/03/14 07:04:28;;;;;;;0.28;0.20;;;8.00;99.90;;;;;;4956368;28;20053;-63
2023/03/14 07:07:01;;;;;;;1.15;0.20;;;8.00;99.90;;;;;;4952317;28;20211;-63
2023/03/14 07:09:34;;;;;;;0.52;0.20;;;8.00;99.90;;;;;;4949626;28;20420;-63
2023/03/14 07:12:07;;;;;;;0.37;0.20;;;8.00;99.90;;;;;;4968296;28;20541;-63
2023/03/14 07:14:34;;;;;;;0.75;0.25;;;8.00;99.90;;;;;;4966612;28;20796;-63
2023/03/14 07:17:06;;;;;;;0.73;0.25;;;8.10;99.90;;;;;;4946231;28;20050;-63
2023/03/14 07:19:33;;;;;;;0.20;0.20;;;8.10;99.90;;;;;;4964483;28;20047;-63
2023/03/14 07:22:06;;;;;;;0.40;0.20;;;8.10;99.90;;;;;;4923563;29;20047;-63
2023/03/14 07:24:37;;;;;;;1.13;0.20;;;8.10;99.90;;;;;;4945690;28;20048;-63
2023/03/14 07:27:09;;;;;;;0.20;0.20;;;8.10;99.90;;;;;;4960291;28;20090;-63
2023/03/14 07:29:41;;;;;;;0.40;0.20;;;8.10;99.90;;;;;;4945058;28;20508;-63
2023/03/14 07:32:15;;;;;;;0.40;0.30;;;8.10;99.90;;;;;;4962933;28;20509;-63
2023/03/14 07:34:47;;;;;;;0.13;0.13;;;8.10;99.90;;;;;;4967268;28;20042;-63
2023/03/14 07:37:20;;;;;;;0.50;0.20;;;8.20;99.90;;;;;;4943478;28;20509;-63
2023/03/14 07:39:51;;;;;;;0.22;0.20;;;8.20;99.90;;;;;;4944413;28;20039;-63
2023/03/14 07:42:26;;;;;;;0.20;0.20;;;8.20;99.90;;;;;;4946555;28;20071;-63
2023/03/14 07:45:13;;;;;;;0.28;0.20;;;8.30;99.90;;;;;;4950125;28;20106;-63
2023/03/14 07:47:45;;;;;;;0.30;0.20;;;8.30;99.90;;;;;;4946417;28;20464;-63
2023/03/14 07:50:12;;;;;;;0.13;0.10;;;8.30;99.90;;;;;;4947663;28;20417;-63
2023/03/14 07:52:39;;;;;;;0.40;0.20;;;8.30;99.90;;;;;;4964914;28;20527;-63
2023/03/14 07:55:13;;;;;;;0.20;0.10;;;8.40;99.90;;;;;;4951333;28;20394;-63
2023/03/14 07:57:45;;;;;;;0.32;0.25;;;8.40;99.90;;;;;;4960972;28;20038;-63
2023/03/14 08:00:17;;;;;;;0.30;0.20;;;8.50;99.90;;;;;;4948982;28;20079;-63
2023/03/14 08:02:49;;;;;;;0.73;0.20;;;8.50;99.90;;;;;;4960979;28;20040;-63
2023/03/14 08:05:21;;;;;;;0.13;0.10;;;8.50;99.90;;;;;;4948589;28;20496;-62
2023/03/14 08:07:53;;;;;;;1.02;0.20;;;8.60;99.90;;;;;;4966711;28;20049;-63
2023/03/14 08:10:25;;;;;;;0.20;0.20;;;8.60;99.90;;;;;;4949865;28;20588;-63
2023/03/14 08:12:58;;;;;;;0.20;0.20;;;8.60;99.90;;;;;;4931335;29;20054;-63
2023/03/14 08:15:31;;;;;;;0.25;0.20;;;8.70;99.90;;;;;;4957130;28;20046;-63
2023/03/14 08:18:04;;;;;;;0.52;0.30;;;8.70;99.90;;;;;;4972264;28;20039;-63
2023/03/14 08:20:36;;;;;;;0.43;0.37;;;8.70;99.90;;;;;;4960038;28;20142;-63
2023/03/14 08:23:08;;;;;;;0.20;0.20;;;8.80;99.90;;;;;;4947191;28;20130;-63
2023/03/14 08:25:39;;;;;;;0.20;0.20;;;8.90;99.90;;;;;;4950441;28;20043;-63
2023/03/14 08:28:06;;;;;;;0.57;0.30;;;8.90;99.90;;;;;;4948371;28;20520;-63
2023/03/14 08:30:38;;;;;;;0.40;0.20;;;9.00;99.90;;;;;;4946436;28;20516;-63
2023/03/14 08:33:10;;;;;;;0.52;0.30;;;9.00;99.90;;;;;;4935906;29;20086;-63
2023/03/14 08:35:42;;;;;;;0.52;0.22;;;9.10;99.90;;;;;;4948137;28;20812;-62
2023/03/14 08:38:14;;;;;;;0.20;0.20;;;9.20;99.90;;;;;;4968098;28;20110;-63
2023/03/14 08:40:46;;;;;;;1.17;0.25;;;9.20;99.90;;;;;;4950715;28;20039;-63
2023/03/14 08:43:18;;;;;;;0.22;0.20;;;9.30;99.90;;;;;;4948360;28;20047;-63
2023/03/14 08:45:50;;;;;;;1.00;0.20;;;9.40;99.90;;;;;;4949628;28;20407;-63
2023/03/14 08:48:22;;;;;;;1.23;0.40;;;9.50;99.90;;;;;;4946623;28;20065;-63
2023/03/14 08:50:54;;;;;;;1.38;0.22;;;9.50;99.90;;;;;;4932043;29;20043;-63
2023/03/14 08:53:25;;;;;;;1.33;0.70;;;9.50;99.90;;;;;;4926034;29;20501;-62
2023/03/14 08:55:54;;;;;;;0.35;0.20;;;9.60;99.90;;;;;;4949905;28;20039;-63
2023/03/14 08:58:27;;;;;;;2.28;0.40;;;9.60;99.90;;;;;;4947052;28;20047;-63
2023/03/14 09:00:59;;;;;;;0.20;0.20;;;9.70;99.90;;;;;;4954185;28;20057;-63
2023/03/14 09:03:31;;;;;;;0.13;0.13;;;9.70;99.90;;;;;;4951007;28;20055;-63
2023/03/14 09:06:07;;;;;;;0.20;0.20;;;9.70;99.90;;;;;;4948056;28;20135;-63
2023/03/14 09:08:39;;;;;;;0.22;0.22;;;9.70;99.90;;;;;;4945462;28;20050;-63
2023/03/14 09:11:11;;;;;;;0.52;0.20;;;9.80;99.90;;;;;;4946814;28;20512;-63
2023/03/14 09:13:38;;;;;;;0.20;0.20;;;9.90;99.90;;;;;;4950258;28;20457;-63
2023/03/14 09:16:10;;;;;;;0.40;0.20;;;10.00;99.90;;;;;;4944763;28;20107;-63
2023/03/14 09:18:42;;;;;;;0.30;0.20;;;10.10;99.90;;;;;;4946419;28;20047;-63
2023/03/14 09:21:14;;;;;;;0.85;0.20;;;10.20;99.90;;;;;;4953841;28;20047;-63
2023/03/14 09:23:47;;;;;;;0.30;0.20;;;10.30;99.90;;;;;;4954857;28;20101;-63
2023/03/14 09:26:19;;;;;;;0.30;0.20;;;10.40;99.90;;;;;;4950835;28;20070;-62
2023/03/14 09:28:51;;;;;;;0.68;0.30;;;10.40;99.90;;;;;;4951365;28;20085;-63
2023/03/14 09:31:23;;;;;;;2.17;0.38;;;10.50;99.90;;;;;;4946932;28;20040;-63
2023/03/14 09:33:55;;;;;;;0.52;0.25;;;10.50;99.90;;;;;;4938790;29;20032;-63
2023/03/14 09:36:27;;;;;;;0.65;0.25;;;10.60;99.90;;;;;;4934380;28;20043;-63
2023/03/14 09:38:59;;;;;;;0.98;0.20;;;10.70;99.90;;;;;;4930035;29;20040;-63
2023/03/14 09:41:37;;;;;;;0.10;0.10;;;10.80;99.90;;;;;;4946685;28;20463;-63
2023/03/14 09:44:26;;;;;;;0.85;0.22;;;11.00;99.90;;;;;;4949515;28;20484;-63
2023/03/14 09:47:06;;;;;;;1.38;0.28;;;11.00;99.90;;;;;;4964147;28;20097;-63
2023/03/14 09:49:40;;;;;;;0.22;0.20;;;11.00;99.90;;;;;;4950420;28;20107;-63
2023/03/14 09:52:19;;;;;;;0.30;0.20;;;11.00;99.90;;;;;;4949159;28;20051;-63
2023/03/14 09:55:02;;;;;;;0.60;0.60;;;11.00;99.90;;;;;;4932499;28;20554;-63
2023/03/14 09:57:36;;;;;;;1.37;0.30;;;10.90;99.90;;;;;;4927836;28;20047;-63
2023/03/14 10:00:20;;;;;;;0.47;0.30;;;11.00;99.90;;;;;;4932097;29;20122;-63
2023/03/14 10:03:13;;;;;;;1.55;0.40;;;11.10;99.90;;;;;;4948284;28;20049;-63
2023/03/14 10:05:41;;;;;;;0.60;0.20;;;11.10;99.90;;;;;;4960723;28;20055;-63
2023/03/14 10:08:13;;;;;;;1.42;0.30;;;11.00;99.90;;;;;;4955936;28;20047;-63
2023/03/14 10:10:45;;;;;;;0.85;0.30;;;11.10;99.90;;;;;;4957292;28;20546;-63
2023/03/14 10:13:17;;;;;;;0.80;0.30;;;11.00;99.90;;;;;;4969475;28;20475;-63
2023/03/14 10:16:10;;;;;;;2.22;0.30;;;11.10;99.90;;;;;;4934398;28;20043;-63
2023/03/14 10:18:46;;;;;;;0.55;0.30;;;11.20;99.90;;;;;;4942493;28;20039;-63
2023/03/14 10:21:29;;;;;;;0.50;0.40;;;11.40;99.90;;;;;;4939422;28;20046;-63
2023/03/14 10:24:27;;;;;;;0.43;0.30;;;11.50;99.90;;;;;;4941531;28;20036;-63
2023/03/14 10:27:05;;;;;;;1.55;0.22;;;11.50;99.90;;;;;;4945377;28;20045;-63
2023/03/14 10:30:00;;;;;;;0.20;0.20;;;11.50;99.90;;;;;;4948526;28;20043;-63
2023/03/14 10:32:35;;;;;;;0.20;0.20;;;11.60;99.90;;;;;;4953254;28;20051;-63
2023/03/14 10:35:13;;;;;;;3.47;0.30;;;11.70;99.90;;;;;;4948572;28;20409;-63
2023/03/14 10:37:55;;;;;;;1.67;0.20;;;11.90;99.90;;;;;;4948759;28;20051;-63
2023/03/14 10:40:31;;;;;;;1.03;0.10;;;12.10;99.90;;;;;;4946853;28;20046;-63
2023/03/14 10:43:06;;;;;;;0.90;0.20;;;12.10;99.90;;;;;;4943450;28;20291;-63
2023/03/14 10:45:44;;;;;;;0.30;0.22;;;12.20;99.90;;;;;;4929397;29;20048;-63
2023/03/14 10:48:37;;;;;;;0.28;0.20;;;12.20;99.90;;;;;;4943532;28;20539;-64
2023/03/14 10:51:17;;;;;;;0.50;0.20;;;12.20;99.90;;;;;;4930303;29;20054;-63
2023/03/14 10:53:59;;;;;;;0.25;0.20;;;12.10;99.90;;;;;;4950335;28;20035;-63
2023/03/14 10:56:37;;;;;;;0.28;0.20;;;12.00;99.90;;;;;;4950833;28;20125;-63
2023/03/14 10:59:14;;;;;;;0.15;0.13;;;12.00;99.90;;;;;;4946064;28;20512;-63
2023/03/14 11:01:59;;;;;;;0.13;0.13;;;11.90;99.90;;;;;;4962125;28;20540;-63
2023/03/14 11:05:00;;;;;;;1.00;0.30;;;12.00;99.90;;;;;;4931154;28;20919;-63
2023/03/14 11:07:32;;;;;;;0.50;0.15;;;12.00;99.90;;;;;;4971032;28;20062;-63
2023/03/14 11:10:29;;;;;;;1.80;0.20;;;12.00;99.90;;;;;;4962835;28;20054;-63
2023/03/14 11:13:40;;;;;;;0.80;0.20;;;12.20;99.90;;;;;;4947055;28;20045;-63
2023/03/14 11:16:26;;;;;;;0.88;0.30;;;12.50;99.90;;;;;;4935716;29;20651;-63
2023/03/14 11:19:17;;;;;;;1.02;0.20;;;12.70;99.90;;;;;;4951848;28;20082;-63
2023/03/14 11:22:19;;;;;;;0.28;0.20;;;12.50;99.90;;;;;;4948126;28;20039;-63
2023/03/14 11:24:57;;;;;;;1.13;0.20;;;12.40;99.90;;;;;;4949718;28;20028;-63
2023/03/14 11:27:47;;;;;;;0.28;0.20;;;12.10;99.90;;;;;;4947693;28;20044;-63
2023/03/14 11:30:24;;;;;;;0.13;0.10;;;12.00;99.90;;;;;;4959365;28;20501;-63
2023/03/14 11:33:01;;;;;;;0.35;0.20;;;11.80;99.90;;;;;;4941315;28;20102;-63
2023/03/14 11:35:36;;;;;;;0.20;0.20;;;11.70;99.90;;;;;;4967089;28;20046;-63
2023/03/14 11:38:34;;;;;;;0.75;0.20;;;11.70;99.90;;;;;;4957295;28;20639;-63
2023/03/14 11:41:13;;;;;;;0.30;0.20;;;11.80;99.90;;;;;;4943275;28;20082;-63
2023/03/14 11:43:44;;;;;;;1.45;0.20;;;11.70;99.90;;;;;;4965124;28;20507;-63
2023/03/14 11:46:27;;;;;;;0.30;0.30;;;11.70;99.90;;;;;;4947105;28;20052;-63
2023/03/14 11:49:35;;;;;;;0.80;0.30;;;11.70;99.90;;;;;;4945830;28;20046;-63
2023/03/14 11:52:17;;;;;;;0.60;0.35;;;11.70;99.90;;;;;;4954948;28;20043;-63
2023/03/14 11:54:52;;;;;;;0.35;0.20;;;11.70;99.90;;;;;;4962445;28;20031;-63
2023/03/14 11:57:25;;;;;;;0.73;0.20;;;11.80;99.90;;;;;;4950801;28;20039;-62
2023/03/14 12:00:04;;;;;;;0.20;0.20;;;11.80;99.90;;;;;;4966367;28;20065;-63
2023/03/14 12:02:44;;;;;;;0.25;0.17;;;11.90;99.90;;;;;;4966127;28;20107;-63
2023/03/14 12:05:45;;;;;;;0.57;0.20;;;12.00;99.90;;;;;;4946790;28;20129;-63
2023/03/14 12:08:32;;;;;;;0.68;0.22;;;12.10;99.90;;;;;;4951806;28;20054;-63
2023/03/14 12:11:10;;;;;;;0.40;0.10;;;12.00;99.90;;;;;;4935842;28;20526;-63
2023/03/14 12:13:50;;;;;;;0.30;0.20;;;12.00;99.90;;;;;;4946758;28;20046;-62
2023/03/14 12:16:22;;;;;;;0.50;0.20;;;11.80;99.90;;;;;;4947935;28;20051;-63
2023/03/14 12:18:54;;;;;;;0.52;0.20;;;11.80;99.90;;;;;;4931248;29;20050;-62
2023/03/14 12:21:47;;;;;;;0.10;0.10;;;11.70;99.90;;;;;;4960943;28;20051;-63
2023/03/14 12:24:23;;;;;;;0.20;0.20;;;11.80;99.90;;;;;;4933615;29;20050;-63
2023/03/14 12:27:00;;;;;;;0.30;0.20;;;11.60;99.90;;;;;;4952094;28;20122;-63
2023/03/14 12:29:32;;;;;;;0.75;0.20;;;11.40;99.90;;;;;;4951536;28;20061;-63
2023/03/14 12:32:23;;;;;;;0.10;0.10;;;11.40;99.90;;;;;;4949045;28;20054;-63
2023/03/14 12:34:55;;;;;;;1.05;0.20;;;11.40;99.90;;;;;;4967640;28;20135;-62
2023/03/14 12:37:36;;;;;;;0.43;0.20;;;11.40;99.90;;;;;;4959254;28;21315;-62
2023/03/14 12:40:09;;;;;;;0.20;0.20;;;11.30;99.90;;;;;;4949544;28;20099;-63
2023/03/14 12:42:43;;;;;;;0.22;0.20;;;11.20;99.90;;;;;;4951786;28;20058;-63
2023/03/14 12:45:34;;;;;;;0.20;0.20;;;11.10;99.90;;;;;;4948688;28;20460;-63
2023/03/14 12:48:30;;;;;;;0.88;0.15;;;11.10;99.90;;;;;;4965071;28;20035;-62
2023/03/14 12:51:05;;;;;;;0.10;0.10;;;11.20;99.90;;;;;;4945747;28;20070;-62
2023/03/14 12:53:35;;;;;;;0.20;0.10;;;11.10;99.90;;;;;;4962098;28;20047;-63
2023/03/14 12:56:58;;;;;;;0.65;0.20;;;11.00;99.90;;;;;;4951763;28;20061;-63
2023/03/14 12:59:45;;;;;;;1.75;0.75;;;11.00;99.90;;;;;;4923626;28;20043;-63
2023/03/14 13:02:29;;;;;;;1.27;0.20;;;10.90;99.90;;;;;;4949549;28;20070;-63
2023/03/14 13:05:10;;;;;;;1.65;0.30;;;10.80;99.90;;;;;;4942237;28;20500;-63
2023/03/14 13:07:43;;;;;;;0.20;0.20;;;10.50;99.90;;;;;;4931265;28;20047;-63
2023/03/14 13:10:20;;;;;;;0.10;0.10;;;10.30;99.90;;;;;;4946290;28;20039;-63
2023/03/14 13:13:01;;;;;;;0.20;0.20;;;10.00;99.90;;;;;;4953370;28;20035;-63
2023/03/14 13:15:39;;;;;;;1.85;0.10;;;9.90;99.90;;;;;;4951685;28;20051;-63
2023/03/14 13:18:37;;;;;;;0.10;0.10;;;9.70;99.90;;;;;;4933504;29;20544;-63
2023/03/14 13:21:19;;;;;;;0.17;0.17;;;9.60;99.90;;;;;;4941072;28;20134;-63
2023/03/14 13:23:58;;;;;;;1.42;0.13;;;9.50;99.90;;;;;;4947117;28;20421;-63
2023/03/14 13:26:36;;;;;;;0.22;0.22;;;9.40;99.90;;;;;;4948330;28;20143;-63
2023/03/14 13:29:28;;;;;;;0.57;0.25;;;9.30;99.90;;;;;;4930612;29;20067;-63
2023/03/14 13:32:16;;;;;;;0.30;0.20;;;9.20;99.90;;;;;;4951024;28;20051;-63
2023/03/14 13:34:48;;;;;;;0.15;0.15;;;9.10;99.90;;;;;;4954086;28;20038;-63
2023/03/14 13:37:23;;;;;;;0.47;0.30;;;9.00;99.90;;;;;;4952444;28;20043;-63
2023/03/14 13:39:56;;;;;;;0.20;0.20;;;8.90;99.90;;;;;;4952608;28;20050;-63
2023/03/14 13:42:29;;;;;;;;;;;8.80;99.90;;;;;;4949042;28;20043;-63
2023/03/14 13:45:01;;;;;;;1.63;0.20;;;8.80;99.90;;;;;;4950312;28;19942;-63
2023/03/14 13:47:33;;;;;;;0.57;0.20;;;8.80;99.90;;;;;;4952613;28;20686;-64